EKCR weather

Christianshede
Silkeborg, Central Jutland, Denmark

Public forecast

Using degrees Celsius for public forecast. Weather courtesy of forecast.io.

METAR (pilot weather report)

Closest report is Karup Airport, 14.6 nm (27.1 km) NW. Retrieved 2019/05/21 08:20 UTC (38 minutes ago):

EKKA 210820Z 32008KT 6000 FEW004 BKN005 15/14 Q1008 TEMPO 4000 BR

TAF (pilot weather forecast)

Closest forecast is Karup Airport, 14.6 nm (27.1 km) NW. Retrieved 2019/05/21 09:30 UTC (0 seconds ago):

TAF TAF EKKA 210825Z 2109/2209 34006KT 8000 BKN030 TEMPO 2109/2118 2500 SHRA TSRA BKN005 BKN030CB BECMG 2115/2118 29008KT TEMPO 2118/2209 2000 -SHRA BR BKN004 SCT030CB